sensor_id;sensor_type;location;lat;lon;timestamp;P1;durP1;ratioP1;P2;durP2;ratioP2
14292;SDS011;62290;59.420;17.842;2022-10-17T00:01:02;3.20;;;1.00;;
14292;SDS011;62290;59.420;17.842;2022-10-17T00:03:30;2.63;;;0.70;;
14292;SDS011;62290;59.420;17.842;2022-10-17T00:06:03;3.80;;;1.13;;
14292;SDS011;62290;59.420;17.842;2022-10-17T00:08:32;3.53;;;1.02;;
14292;SDS011;62290;59.420;17.842;2022-10-17T00:11:02;2.80;;;0.73;;
14292;SDS011;62290;59.420;17.842;2022-10-17T00:13:33;5.45;;;1.55;;
14292;SDS011;62290;59.420;17.842;2022-10-17T00:16:02;4.55;;;1.23;;
14292;SDS011;62290;59.420;17.842;2022-10-17T00:18:30;5.75;;;1.00;;
14292;SDS011;62290;59.420;17.842;2022-10-17T00:20:58;6.00;;;0.93;;
14292;SDS011;62290;59.420;17.842;2022-10-17T00:23:26;4.40;;;1.05;;
14292;SDS011;62290;59.420;17.842;2022-10-17T00:25:59;3.63;;;1.08;;
14292;SDS011;62290;59.420;17.842;2022-10-17T00:28:28;4.60;;;1.65;;
14292;SDS011;62290;59.420;17.842;2022-10-17T00:30:57;4.35;;;1.00;;
14292;SDS011;62290;59.420;17.842;2022-10-17T00:33:25;2.88;;;0.95;;
14292;SDS011;62290;59.420;17.842;2022-10-17T00:36:01;6.47;;;1.25;;
14292;SDS011;62290;59.420;17.842;2022-10-17T00:38:30;1.98;;;0.85;;
14292;SDS011;62290;59.420;17.842;2022-10-17T00:40:57;3.33;;;0.90;;
14292;SDS011;62290;59.420;17.842;2022-10-17T00:43:25;3.83;;;1.15;;
14292;SDS011;62290;59.420;17.842;2022-10-17T00:45:56;5.07;;;1.50;;
14292;SDS011;62290;59.420;17.842;2022-10-17T00:48:24;4.18;;;1.10;;
14292;SDS011;62290;59.420;17.842;2022-10-17T00:50:52;3.53;;;1.20;;
14292;SDS011;62290;59.420;17.842;2022-10-17T00:53:21;3.60;;;1.05;;
14292;SDS011;62290;59.420;17.842;2022-10-17T00:55:49;4.10;;;1.10;;
14292;SDS011;62290;59.420;17.842;2022-10-17T00:58:19;3.05;;;0.88;;
14292;SDS011;62290;59.420;17.842;2022-10-17T01:00:47;3.63;;;0.95;;
14292;SDS011;62290;59.420;17.842;2022-10-17T01:03:17;3.33;;;1.00;;
14292;SDS011;62290;59.420;17.842;2022-10-17T01:05:45;5.35;;;1.10;;
14292;SDS011;62290;59.420;17.842;2022-10-17T01:08:13;4.20;;;1.05;;
14292;SDS011;62290;59.420;17.842;2022-10-17T01:10:44;4.50;;;1.35;;
14292;SDS011;62290;59.420;17.842;2022-10-17T01:13:22;5.88;;;1.33;;
14292;SDS011;62290;59.420;17.842;2022-10-17T01:15:57;5.72;;;1.35;;
14292;SDS011;62290;59.420;17.842;2022-10-17T01:18:34;6.55;;;1.20;;
14292;SDS011;62290;59.420;17.842;2022-10-17T01:21:18;6.57;;;1.38;;
14292;SDS011;62290;59.420;17.842;2022-10-17T01:24:03;5.90;;;1.40;;
14292;SDS011;62290;59.420;17.842;2022-10-17T01:26:56;3.70;;;0.88;;
14292;SDS011;62290;59.420;17.842;2022-10-17T01:29:47;6.88;;;1.15;;
14292;SDS011;62290;59.420;17.842;2022-10-17T01:32:32;5.20;;;1.02;;
14292;SDS011;62290;59.420;17.842;2022-10-17T01:35:08;4.10;;;1.00;;
14292;SDS011;62290;59.420;17.842;2022-10-17T01:37:43;4.60;;;1.05;;
14292;SDS011;62290;59.420;17.842;2022-10-17T01:40:15;4.13;;;1.17;;
14292;SDS011;62290;59.420;17.842;2022-10-17T01:42:52;3.53;;;0.90;;
14292;SDS011;62290;59.420;17.842;2022-10-17T01:45:25;6.20;;;1.42;;
14292;SDS011;62290;59.420;17.842;2022-10-17T01:48:01;6.85;;;1.00;;
14292;SDS011;62290;59.420;17.842;2022-10-17T01:50:34;5.20;;;1.13;;
14292;SDS011;62290;59.420;17.842;2022-10-17T01:53:07;5.00;;;1.00;;
14292;SDS011;62290;59.420;17.842;2022-10-17T01:55:40;5.10;;;1.38;;
14292;SDS011;62290;59.420;17.842;2022-10-17T01:58:11;3.80;;;1.05;;
14292;SDS011;62290;59.420;17.842;2022-10-17T02:00:44;3.47;;;1.05;;
14292;SDS011;62290;59.420;17.842;2022-10-17T02:03:17;6.43;;;1.08;;
14292;SDS011;62290;59.420;17.842;2022-10-17T02:05:47;3.95;;;1.42;;
14292;SDS011;62290;59.420;17.842;2022-10-17T02:08:23;5.38;;;1.17;;
14292;SDS011;62290;59.420;17.842;2022-10-17T02:10:55;5.30;;;1.27;;
14292;SDS011;62290;59.420;17.842;2022-10-17T02:13:31;3.05;;;0.85;;
14292;SDS011;62290;59.420;17.842;2022-10-17T02:16:11;4.53;;;1.10;;
14292;SDS011;62290;59.420;17.842;2022-10-17T02:18:58;3.15;;;1.15;;
14292;SDS011;62290;59.420;17.842;2022-10-17T02:21:37;4.57;;;1.20;;
14292;SDS011;62290;59.420;17.842;2022-10-17T02:24:15;8.57;;;0.98;;
14292;SDS011;62290;59.420;17.842;2022-10-17T02:26:49;5.70;;;1.65;;
14292;SDS011;62290;59.420;17.842;2022-10-17T02:29:22;4.65;;;1.02;;
14292;SDS011;62290;59.420;17.842;2022-10-17T02:31:57;5.18;;;1.20;;
14292;SDS011;62290;59.420;17.842;2022-10-17T02:34:31;3.63;;;0.93;;
14292;SDS011;62290;59.420;17.842;2022-10-17T02:37:04;6.22;;;1.38;;
14292;SDS011;62290;59.420;17.842;2022-10-17T02:39:34;3.58;;;1.17;;
14292;SDS011;62290;59.420;17.842;2022-10-17T02:42:05;3.00;;;1.08;;
14292;SDS011;62290;59.420;17.842;2022-10-17T02:44:37;3.47;;;1.08;;
14292;SDS011;62290;59.420;17.842;2022-10-17T02:47:13;6.28;;;1.23;;
14292;SDS011;62290;59.420;17.842;2022-10-17T02:49:49;3.55;;;1.45;;
14292;SDS011;62290;59.420;17.842;2022-10-17T02:52:21;6.10;;;1.05;;
14292;SDS011;62290;59.420;17.842;2022-10-17T02:54:56;2.72;;;0.68;;
14292;SDS011;62290;59.420;17.842;2022-10-17T02:57:30;4.18;;;1.15;;
14292;SDS011;62290;59.420;17.842;2022-10-17T03:00:03;3.65;;;1.65;;
14292;SDS011;62290;59.420;17.842;2022-10-17T03:02:37;4.80;;;1.23;;
14292;SDS011;62290;59.420;17.842;2022-10-17T03:05:10;4.13;;;1.30;;
14292;SDS011;62290;59.420;17.842;2022-10-17T03:07:39;6.60;;;1.10;;
14292;SDS011;62290;59.420;17.842;2022-10-17T03:10:07;3.90;;;0.93;;
14292;SDS011;62290;59.420;17.842;2022-10-17T03:12:36;3.17;;;0.93;;
14292;SDS011;62290;59.420;17.842;2022-10-17T03:15:04;2.72;;;1.00;;
14292;SDS011;62290;59.420;17.842;2022-10-17T03:17:33;2.70;;;0.98;;
14292;SDS011;62290;59.420;17.842;2022-10-17T03:20:02;2.97;;;0.80;;
14292;SDS011;62290;59.420;17.842;2022-10-17T03:22:32;3.33;;;0.90;;
14292;SDS011;62290;59.420;17.842;2022-10-17T03:25:02;1.67;;;0.60;;
14292;SDS011;62290;59.420;17.842;2022-10-17T03:27:33;1.25;;;0.65;;
14292;SDS011;62290;59.420;17.842;2022-10-17T03:30:01;3.65;;;1.00;;
14292;SDS011;62290;59.420;17.842;2022-10-17T03:32:31;2.17;;;1.02;;
14292;SDS011;62290;59.420;17.842;2022-10-17T03:34:59;3.13;;;1.00;;
14292;SDS011;62290;59.420;17.842;2022-10-17T03:37:28;6.53;;;1.13;;
14292;SDS011;62290;59.420;17.842;2022-10-17T03:39:58;4.03;;;0.80;;
14292;SDS011;62290;59.420;17.842;2022-10-17T03:42:27;5.70;;;1.30;;
14292;SDS011;62290;59.420;17.842;2022-10-17T03:44:56;3.00;;;0.80;;
14292;SDS011;62290;59.420;17.842;2022-10-17T03:47:24;3.75;;;1.08;;
14292;SDS011;62290;59.420;17.842;2022-10-17T03:49:52;4.07;;;1.05;;
14292;SDS011;62290;59.420;17.842;2022-10-17T03:52:20;1.95;;;0.93;;
14292;SDS011;62290;59.420;17.842;2022-10-17T03:54:48;2.78;;;1.13;;
14292;SDS011;62290;59.420;17.842;2022-10-17T03:57:18;2.35;;;0.73;;
14292;SDS011;62290;59.420;17.842;2022-10-17T03:59:46;4.18;;;1.00;;
14292;SDS011;62290;59.420;17.842;2022-10-17T04:02:18;2.85;;;0.98;;
14292;SDS011;62290;59.420;17.842;2022-10-17T04:04:47;4.10;;;0.90;;
14292;SDS011;62290;59.420;17.842;2022-10-17T04:07:15;7.90;;;1.13;;
14292;SDS011;62290;59.420;17.842;2022-10-17T04:09:44;3.10;;;0.90;;
14292;SDS011;62290;59.420;17.842;2022-10-17T04:12:18;2.92;;;1.00;;
14292;SDS011;62290;59.420;17.842;2022-10-17T04:14:46;7.95;;;1.27;;
14292;SDS011;62290;59.420;17.842;2022-10-17T04:17:15;2.05;;;0.80;;
14292;SDS011;62290;59.420;17.842;2022-10-17T04:19:43;3.88;;;0.98;;
14292;SDS011;62290;59.420;17.842;2022-10-17T04:22:14;3.38;;;1.00;;
14292;SDS011;62290;59.420;17.842;2022-10-17T04:24:42;3.53;;;1.17;;
14292;SDS011;62290;59.420;17.842;2022-10-17T04:27:30;4.32;;;1.05;;
14292;SDS011;62290;59.420;17.842;2022-10-17T04:29:58;3.35;;;1.10;;
14292;SDS011;62290;59.420;17.842;2022-10-17T04:32:29;2.90;;;0.88;;
14292;SDS011;62290;59.420;17.842;2022-10-17T04:35:05;2.50;;;0.77;;
14292;SDS011;62290;59.420;17.842;2022-10-17T04:37:34;3.25;;;0.90;;
14292;SDS011;62290;59.420;17.842;2022-10-17T04:40:09;3.47;;;0.82;;
14292;SDS011;62290;59.420;17.842;2022-10-17T04:42:39;2.42;;;0.77;;
14292;SDS011;62290;59.420;17.842;2022-10-17T04:45:09;4.13;;;1.13;;
14292;SDS011;62290;59.420;17.842;2022-10-17T04:47:38;6.25;;;1.27;;
14292;SDS011;62290;59.420;17.842;2022-10-17T04:50:06;4.13;;;1.38;;
14292;SDS011;62290;59.420;17.842;2022-10-17T04:52:35;2.85;;;1.23;;
14292;SDS011;62290;59.420;17.842;2022-10-17T04:55:03;4.43;;;1.40;;
14292;SDS011;62290;59.420;17.842;2022-10-17T04:57:33;6.72;;;0.80;;
14292;SDS011;62290;59.420;17.842;2022-10-17T05:00:10;2.65;;;0.90;;
14292;SDS011;62290;59.420;17.842;2022-10-17T05:02:57;4.80;;;1.00;;
14292;SDS011;62290;59.420;17.842;2022-10-17T05:05:27;3.10;;;0.98;;
14292;SDS011;62290;59.420;17.842;2022-10-17T05:07:55;4.95;;;1.55;;
14292;SDS011;62290;59.420;17.842;2022-10-17T05:10:27;5.40;;;1.10;;
14292;SDS011;62290;59.420;17.842;2022-10-17T05:12:56;3.97;;;1.05;;
14292;SDS011;62290;59.420;17.842;2022-10-17T05:15:30;4.35;;;1.02;;
14292;SDS011;62290;59.420;17.842;2022-10-17T05:17:59;2.00;;;0.52;;
14292;SDS011;62290;59.420;17.842;2022-10-17T05:20:28;4.07;;;1.30;;
14292;SDS011;62290;59.420;17.842;2022-10-17T05:22:57;4.30;;;0.90;;
14292;SDS011;62290;59.420;17.842;2022-10-17T05:25:30;6.55;;;1.13;;
14292;SDS011;62290;59.420;17.842;2022-10-17T05:27:58;7.65;;;1.10;;
14292;SDS011;62290;59.420;17.842;2022-10-17T05:30:26;5.65;;;1.00;;
14292;SDS011;62290;59.420;17.842;2022-10-17T05:33:01;3.58;;;0.95;;
14292;SDS011;62290;59.420;17.842;2022-10-17T05:35:30;4.05;;;1.17;;
14292;SDS011;62290;59.420;17.842;2022-10-17T05:37:57;2.55;;;0.90;;
14292;SDS011;62290;59.420;17.842;2022-10-17T05:40:28;2.40;;;0.95;;
14292;SDS011;62290;59.420;17.842;2022-10-17T05:42:57;3.58;;;1.13;;
14292;SDS011;62290;59.420;17.842;2022-10-17T05:45:25;2.65;;;0.82;;
14292;SDS011;62290;59.420;17.842;2022-10-17T05:47:53;3.65;;;1.13;;
14292;SDS011;62290;59.420;17.842;2022-10-17T05:50:22;2.33;;;0.60;;
14292;SDS011;62290;59.420;17.842;2022-10-17T05:53:10;3.03;;;1.13;;
14292;SDS011;62290;59.420;17.842;2022-10-17T05:55:44;3.60;;;0.82;;
14292;SDS011;62290;59.420;17.842;2022-10-17T05:58:12;3.70;;;1.13;;
14292;SDS011;62290;59.420;17.842;2022-10-17T06:00:58;3.55;;;0.93;;
14292;SDS011;62290;59.420;17.842;2022-10-17T06:03:27;3.53;;;1.10;;
14292;SDS011;62290;59.420;17.842;2022-10-17T06:05:57;3.10;;;0.80;;
14292;SDS011;62290;59.420;17.842;2022-10-17T06:08:30;3.10;;;1.08;;
14292;SDS011;62290;59.420;17.842;2022-10-17T06:10:58;4.10;;;1.20;;
14292;SDS011;62290;59.420;17.842;2022-10-17T06:13:33;6.20;;;1.23;;
14292;SDS011;62290;59.420;17.842;2022-10-17T06:16:08;6.13;;;1.23;;
14292;SDS011;62290;59.420;17.842;2022-10-17T06:18:37;4.63;;;0.90;;
14292;SDS011;62290;59.420;17.842;2022-10-17T06:21:07;3.65;;;1.20;;
14292;SDS011;62290;59.420;17.842;2022-10-17T06:23:41;6.72;;;1.48;;
14292;SDS011;62290;59.420;17.842;2022-10-17T06:26:17;4.70;;;1.00;;
14292;SDS011;62290;59.420;17.842;2022-10-17T06:28:46;6.55;;;1.30;;
14292;SDS011;62290;59.420;17.842;2022-10-17T06:31:15;7.15;;;1.27;;
14292;SDS011;62290;59.420;17.842;2022-10-17T06:33:45;5.88;;;1.27;;
14292;SDS011;62290;59.420;17.842;2022-10-17T06:36:14;8.68;;;1.38;;
14292;SDS011;62290;59.420;17.842;2022-10-17T06:38:43;5.07;;;1.10;;
14292;SDS011;62290;59.420;17.842;2022-10-17T06:41:30;5.15;;;1.27;;
14292;SDS011;62290;59.420;17.842;2022-10-17T06:44:03;3.10;;;1.00;;
14292;SDS011;62290;59.420;17.842;2022-10-17T06:46:36;4.55;;;1.25;;
14292;SDS011;62290;59.420;17.842;2022-10-17T06:49:06;3.33;;;1.35;;
14292;SDS011;62290;59.420;17.842;2022-10-17T06:51:49;3.95;;;1.13;;
14292;SDS011;62290;59.420;17.842;2022-10-17T06:54:21;4.32;;;1.00;;
14292;SDS011;62290;59.420;17.842;2022-10-17T06:57:12;3.40;;;1.00;;
14292;SDS011;62290;59.420;17.842;2022-10-17T06:59:49;3.78;;;0.98;;
14292;SDS011;62290;59.420;17.842;2022-10-17T07:02:27;7.10;;;1.90;;
14292;SDS011;62290;59.420;17.842;2022-10-17T07:04:58;4.18;;;1.30;;
14292;SDS011;62290;59.420;17.842;2022-10-17T07:07:27;5.45;;;1.52;;
14292;SDS011;62290;59.420;17.842;2022-10-17T07:09:57;5.00;;;1.35;;
14292;SDS011;62290;59.420;17.842;2022-10-17T07:12:25;5.10;;;1.73;;
14292;SDS011;62290;59.420;17.842;2022-10-17T07:14:53;3.00;;;0.98;;
14292;SDS011;62290;59.420;17.842;2022-10-17T07:17:21;5.53;;;1.35;;
14292;SDS011;62290;59.420;17.842;2022-10-17T07:19:49;2.55;;;0.88;;
14292;SDS011;62290;59.420;17.842;2022-10-17T07:22:17;3.55;;;1.00;;
14292;SDS011;62290;59.420;17.842;2022-10-17T07:24:49;7.90;;;1.27;;
14292;SDS011;62290;59.420;17.842;2022-10-17T07:27:24;7.68;;;1.40;;
14292;SDS011;62290;59.420;17.842;2022-10-17T07:29:52;3.80;;;1.10;;
14292;SDS011;62290;59.420;17.842;2022-10-17T07:32:35;7.50;;;1.20;;
14292;SDS011;62290;59.420;17.842;2022-10-17T07:35:04;2.55;;;1.00;;
14292;SDS011;62290;59.420;17.842;2022-10-17T07:37:32;5.70;;;1.30;;
14292;SDS011;62290;59.420;17.842;2022-10-17T07:40:02;5.90;;;1.48;;
14292;SDS011;62290;59.420;17.842;2022-10-17T07:42:32;3.70;;;0.90;;
14292;SDS011;62290;59.420;17.842;2022-10-17T07:45:04;6.72;;;1.42;;
14292;SDS011;62290;59.420;17.842;2022-10-17T07:47:33;4.38;;;1.33;;
14292;SDS011;62290;59.420;17.842;2022-10-17T07:50:04;4.10;;;1.20;;
14292;SDS011;62290;59.420;17.842;2022-10-17T07:52:32;4.10;;;1.13;;
14292;SDS011;62290;59.420;17.842;2022-10-17T07:55:00;2.47;;;1.05;;
14292;SDS011;62290;59.420;17.842;2022-10-17T07:57:30;5.40;;;1.05;;
14292;SDS011;62290;59.420;17.842;2022-10-17T07:59:57;6.20;;;1.55;;
14292;SDS011;62290;59.420;17.842;2022-10-17T08:02:26;5.95;;;1.63;;
14292;SDS011;62290;59.420;17.842;2022-10-17T08:04:54;9.05;;;1.70;;
14292;SDS011;62290;59.420;17.842;2022-10-17T08:07:22;4.20;;;1.10;;
14292;SDS011;62290;59.420;17.842;2022-10-17T08:09:54;8.07;;;1.45;;
14292;SDS011;62290;59.420;17.842;2022-10-17T08:12:22;12.60;;;5.78;;
14292;SDS011;62290;59.420;17.842;2022-10-17T08:14:52;220.82;;;59.28;;
14292;SDS011;62290;59.420;17.842;2022-10-17T08:17:20;234.20;;;58.63;;
14292;SDS011;62290;59.420;17.842;2022-10-17T08:19:48;449.15;;;142.65;;
14292;SDS011;62290;59.420;17.842;2022-10-17T08:22:16;383.02;;;144.73;;
14292;SDS011;62290;59.420;17.842;2022-10-17T08:24:44;253.75;;;92.93;;
14292;SDS011;62290;59.420;17.842;2022-10-17T08:27:12;181.05;;;62.30;;
14292;SDS011;62290;59.420;17.842;2022-10-17T08:29:40;108.82;;;44.85;;
14292;SDS011;62290;59.420;17.842;2022-10-17T08:32:09;77.82;;;33.63;;
14292;SDS011;62290;59.420;17.842;2022-10-17T08:34:37;72.13;;;24.15;;
14292;SDS011;62290;59.420;17.842;2022-10-17T08:37:05;74.40;;;22.25;;
14292;SDS011;62290;59.420;17.842;2022-10-17T08:39:33;53.40;;;17.70;;
14292;SDS011;62290;59.420;17.842;2022-10-17T08:42:03;44.55;;;15.60;;
14292;SDS011;62290;59.420;17.842;2022-10-17T08:44:46;40.55;;;14.07;;
14292;SDS011;62290;59.420;17.842;2022-10-17T08:47:23;35.63;;;12.82;;
14292;SDS011;62290;59.420;17.842;2022-10-17T08:49:56;33.17;;;11.90;;
14292;SDS011;62290;59.420;17.842;2022-10-17T08:52:28;35.72;;;11.55;;
14292;SDS011;62290;59.420;17.842;2022-10-17T08:55:03;27.30;;;10.55;;
14292;SDS011;62290;59.420;17.842;2022-10-17T08:57:36;29.48;;;10.10;;
14292;SDS011;62290;59.420;17.842;2022-10-17T09:00:06;27.83;;;9.18;;
14292;SDS011;62290;59.420;17.842;2022-10-17T09:02:46;26.65;;;10.07;;
14292;SDS011;62290;59.420;17.842;2022-10-17T09:05:22;20.27;;;7.57;;
14292;SDS011;62290;59.420;17.842;2022-10-17T09:08:00;17.55;;;6.30;;
14292;SDS011;62290;59.420;17.842;2022-10-17T09:10:38;17.75;;;5.82;;
14292;SDS011;62290;59.420;17.842;2022-10-17T09:13:24;13.55;;;4.93;;
14292;SDS011;62290;59.420;17.842;2022-10-17T09:16:08;12.82;;;5.15;;
14292;SDS011;62290;59.420;17.842;2022-10-17T09:18:57;9.38;;;3.83;;
14292;SDS011;62290;59.420;17.842;2022-10-17T09:21:32;9.52;;;3.97;;
14292;SDS011;62290;59.420;17.842;2022-10-17T09:24:10;7.88;;;3.38;;
14292;SDS011;62290;59.420;17.842;2022-10-17T09:26:43;8.85;;;2.95;;
14292;SDS011;62290;59.420;17.842;2022-10-17T09:29:17;7.25;;;2.90;;
14292;SDS011;62290;59.420;17.842;2022-10-17T09:31:50;8.43;;;2.88;;
14292;SDS011;62290;59.420;17.842;2022-10-17T09:34:26;5.85;;;2.40;;
14292;SDS011;62290;59.420;17.842;2022-10-17T09:36:56;10.88;;;2.95;;
14292;SDS011;62290;59.420;17.842;2022-10-17T09:39:25;16.92;;;2.40;;
14292;SDS011;62290;59.420;17.842;2022-10-17T09:41:57;4.78;;;2.67;;
14292;SDS011;62290;59.420;17.842;2022-10-17T09:44:28;12.63;;;2.38;;
14292;SDS011;62290;59.420;17.842;2022-10-17T09:47:07;6.88;;;2.10;;
14292;SDS011;62290;59.420;17.842;2022-10-17T09:49:51;7.30;;;2.45;;
14292;SDS011;62290;59.420;17.842;2022-10-17T09:52:20;8.07;;;2.92;;
14292;SDS011;62290;59.420;17.842;2022-10-17T09:54:54;5.60;;;1.58;;
14292;SDS011;62290;59.420;17.842;2022-10-17T09:57:26;5.65;;;1.70;;
14292;SDS011;62290;59.420;17.842;2022-10-17T09:59:55;5.57;;;1.70;;
14292;SDS011;62290;59.420;17.842;2022-10-17T10:02:26;8.23;;;1.90;;
14292;SDS011;62290;59.420;17.842;2022-10-17T10:04:58;5.38;;;1.77;;
14292;SDS011;62290;59.420;17.842;2022-10-17T10:07:32;4.40;;;1.77;;
14292;SDS011;62290;59.420;17.842;2022-10-17T10:10:02;5.95;;;1.75;;
14292;SDS011;62290;59.420;17.842;2022-10-17T10:12:33;7.50;;;1.70;;
14292;SDS011;62290;59.420;17.842;2022-10-17T10:15:12;8.35;;;1.65;;
14292;SDS011;62290;59.420;17.842;2022-10-17T10:17:59;4.35;;;1.60;;
14292;SDS011;62290;59.420;17.842;2022-10-17T10:20:30;6.38;;;1.15;;
14292;SDS011;62290;59.420;17.842;2022-10-17T10:23:03;3.45;;;1.20;;
14292;SDS011;62290;59.420;17.842;2022-10-17T10:25:47;3.78;;;1.38;;
14292;SDS011;62290;59.420;17.842;2022-10-17T10:28:19;4.85;;;1.10;;
14292;SDS011;62290;59.420;17.842;2022-10-17T10:30:51;3.67;;;1.33;;
14292;SDS011;62290;59.420;17.842;2022-10-17T10:33:22;4.55;;;1.15;;
14292;SDS011;62290;59.420;17.842;2022-10-17T10:35:55;3.80;;;1.08;;
14292;SDS011;62290;59.420;17.842;2022-10-17T10:38:26;5.28;;;1.92;;
14292;SDS011;62290;59.420;17.842;2022-10-17T10:40:55;3.35;;;1.30;;
14292;SDS011;62290;59.420;17.842;2022-10-17T10:43:31;3.65;;;1.42;;
14292;SDS011;62290;59.420;17.842;2022-10-17T10:46:04;5.22;;;1.10;;
14292;SDS011;62290;59.420;17.842;2022-10-17T10:48:48;2.88;;;1.20;;
14292;SDS011;62290;59.420;17.842;2022-10-17T10:51:20;2.95;;;1.00;;
14292;SDS011;62290;59.420;17.842;2022-10-17T10:53:55;4.07;;;0.90;;
14292;SDS011;62290;59.420;17.842;2022-10-17T10:56:32;6.85;;;1.35;;
14292;SDS011;62290;59.420;17.842;2022-10-17T10:59:05;2.22;;;1.10;;
14292;SDS011;62290;59.420;17.842;2022-10-17T11:01:41;3.78;;;1.00;;
14292;SDS011;62290;59.420;17.842;2022-10-17T11:04:19;3.58;;;1.02;;
14292;SDS011;62290;59.420;17.842;2022-10-17T11:06:59;2.05;;;1.02;;
14292;SDS011;62290;59.420;17.842;2022-10-17T11:09:41;2.92;;;0.68;;
14292;SDS011;62290;59.420;17.842;2022-10-17T11:12:16;3.40;;;1.13;;
14292;SDS011;62290;59.420;17.842;2022-10-17T11:14:50;3.47;;;0.90;;
14292;SDS011;62290;59.420;17.842;2022-10-17T11:17:26;2.50;;;0.80;;
14292;SDS011;62290;59.420;17.842;2022-10-17T11:20:02;2.10;;;0.77;;
14292;SDS011;62290;59.420;17.842;2022-10-17T11:22:43;3.45;;;1.02;;
14292;SDS011;62290;59.420;17.842;2022-10-17T11:25:18;3.17;;;0.77;;
14292;SDS011;62290;59.420;17.842;2022-10-17T11:28:00;3.42;;;1.00;;
14292;SDS011;62290;59.420;17.842;2022-10-17T11:30:35;2.88;;;0.93;;
14292;SDS011;62290;59.420;17.842;2022-10-17T11:33:12;2.95;;;0.60;;
14292;SDS011;62290;59.420;17.842;2022-10-17T11:35:45;2.72;;;1.00;;
14292;SDS011;62290;59.420;17.842;2022-10-17T11:38:19;4.78;;;0.93;;
14292;SDS011;62290;59.420;17.842;2022-10-17T11:40:52;2.35;;;0.88;;
14292;SDS011;62290;59.420;17.842;2022-10-17T11:43:26;3.47;;;0.80;;
14292;SDS011;62290;59.420;17.842;2022-10-17T11:45:58;2.95;;;0.93;;
14292;SDS011;62290;59.420;17.842;2022-10-17T11:48:33;1.70;;;0.63;;
14292;SDS011;62290;59.420;17.842;2022-10-17T11:51:08;2.95;;;1.13;;
14292;SDS011;62290;59.420;17.842;2022-10-17T11:54:01;5.30;;;1.02;;
14292;SDS011;62290;59.420;17.842;2022-10-17T11:56:35;4.55;;;1.35;;
14292;SDS011;62290;59.420;17.842;2022-10-17T11:59:21;4.40;;;1.05;;
14292;SDS011;62290;59.420;17.842;2022-10-17T12:02:07;5.05;;;1.25;;
14292;SDS011;62290;59.420;17.842;2022-10-17T12:04:44;6.55;;;1.67;;
14292;SDS011;62290;59.420;17.842;2022-10-17T12:07:22;5.88;;;1.15;;
14292;SDS011;62290;59.420;17.842;2022-10-17T12:10:06;7.18;;;1.67;;
14292;SDS011;62290;59.420;17.842;2022-10-17T12:12:48;3.47;;;0.90;;
14292;SDS011;62290;59.420;17.842;2022-10-17T12:15:28;2.30;;;1.00;;
14292;SDS011;62290;59.420;17.842;2022-10-17T12:17:57;4.82;;;1.15;;
14292;SDS011;62290;59.420;17.842;2022-10-17T12:20:31;4.13;;;1.20;;
14292;SDS011;62290;59.420;17.842;2022-10-17T12:23:03;4.03;;;0.90;;
14292;SDS011;62290;59.420;17.842;2022-10-17T12:25:52;4.20;;;1.05;;
14292;SDS011;62290;59.420;17.842;2022-10-17T12:28:28;4.15;;;1.10;;
14292;SDS011;62290;59.420;17.842;2022-10-17T12:30:59;2.55;;;0.95;;
14292;SDS011;62290;59.420;17.842;2022-10-17T12:33:32;1.55;;;0.70;;
14292;SDS011;62290;59.420;17.842;2022-10-17T12:48:11;3.58;;;1.50;;
14292;SDS011;62290;59.420;17.842;2022-10-17T12:53:52;4.80;;;1.17;;
14292;SDS011;62290;59.420;17.842;2022-10-17T12:56:34;3.28;;;0.82;;
14292;SDS011;62290;59.420;17.842;2022-10-17T12:59:11;4.38;;;0.95;;
14292;SDS011;62290;59.420;17.842;2022-10-17T13:01:43;4.55;;;1.20;;
14292;SDS011;62290;59.420;17.842;2022-10-17T13:04:13;4.32;;;1.23;;
14292;SDS011;62290;59.420;17.842;2022-10-17T13:06:43;4.55;;;0.90;;
14292;SDS011;62290;59.420;17.842;2022-10-17T13:09:18;4.10;;;1.25;;
14292;SDS011;62290;59.420;17.842;2022-10-17T13:11:51;4.60;;;1.13;;
14292;SDS011;62290;59.420;17.842;2022-10-17T13:14:21;4.05;;;1.00;;
14292;SDS011;62290;59.420;17.842;2022-10-17T13:16:51;3.90;;;1.05;;
14292;SDS011;62290;59.420;17.842;2022-10-17T13:19:22;3.85;;;1.08;;
14292;SDS011;62290;59.420;17.842;2022-10-17T13:21:52;3.80;;;1.00;;
14292;SDS011;62290;59.420;17.842;2022-10-17T13:24:29;5.13;;;1.30;;
14292;SDS011;62290;59.420;17.842;2022-10-17T13:26:58;4.95;;;1.20;;
14292;SDS011;62290;59.420;17.842;2022-10-17T13:29:28;5.15;;;1.13;;
14292;SDS011;62290;59.420;17.842;2022-10-17T13:31:59;3.85;;;1.08;;
14292;SDS011;62290;59.420;17.842;2022-10-17T13:34:30;6.15;;;1.40;;
14292;SDS011;62290;59.420;17.842;2022-10-17T13:36:59;11.10;;;1.85;;
14292;SDS011;62290;59.420;17.842;2022-10-17T13:39:31;4.38;;;1.15;;
14292;SDS011;62290;59.420;17.842;2022-10-17T13:42:21;7.75;;;1.20;;
14292;SDS011;62290;59.420;17.842;2022-10-17T13:44:54;4.03;;;1.20;;
14292;SDS011;62290;59.420;17.842;2022-10-17T13:47:24;6.45;;;1.50;;
14292;SDS011;62290;59.420;17.842;2022-10-17T13:49:54;5.32;;;1.52;;
14292;SDS011;62290;59.420;17.842;2022-10-17T13:52:24;7.55;;;1.70;;
14292;SDS011;62290;59.420;17.842;2022-10-17T13:55:05;6.82;;;1.67;;
14292;SDS011;62290;59.420;17.842;2022-10-17T13:57:38;7.47;;;1.77;;
14292;SDS011;62290;59.420;17.842;2022-10-17T14:00:10;8.18;;;1.55;;
14292;SDS011;62290;59.420;17.842;2022-10-17T14:02:46;5.38;;;1.25;;
14292;SDS011;62290;59.420;17.842;2022-10-17T14:05:15;5.25;;;1.60;;
14292;SDS011;62290;59.420;17.842;2022-10-17T14:07:49;14.73;;;1.80;;
14292;SDS011;62290;59.420;17.842;2022-10-17T14:10:39;6.15;;;1.50;;
14292;SDS011;62290;59.420;17.842;2022-10-17T14:13:16;8.32;;;2.28;;
14292;SDS011;62290;59.420;17.842;2022-10-17T14:15:49;5.40;;;1.50;;
14292;SDS011;62290;59.420;17.842;2022-10-17T14:18:19;7.47;;;1.92;;
14292;SDS011;62290;59.420;17.842;2022-10-17T14:20:50;8.15;;;1.35;;
14292;SDS011;62290;59.420;17.842;2022-10-17T14:23:40;5.35;;;1.70;;
14292;SDS011;62290;59.420;17.842;2022-10-17T14:26:11;8.82;;;1.75;;
14292;SDS011;62290;59.420;17.842;2022-10-17T14:28:41;9.98;;;2.45;;
14292;SDS011;62290;59.420;17.842;2022-10-17T14:31:16;6.93;;;1.52;;
14292;SDS011;62290;59.420;17.842;2022-10-17T14:33:47;7.13;;;1.50;;
14292;SDS011;62290;59.420;17.842;2022-10-17T14:36:17;7.05;;;1.70;;
14292;SDS011;62290;59.420;17.842;2022-10-17T14:38:47;7.00;;;1.65;;
14292;SDS011;62290;59.420;17.842;2022-10-17T14:41:21;4.75;;;1.33;;
14292;SDS011;62290;59.420;17.842;2022-10-17T14:44:13;5.55;;;1.35;;
14292;SDS011;62290;59.420;17.842;2022-10-17T14:46:46;5.20;;;1.25;;
14292;SDS011;62290;59.420;17.842;2022-10-17T14:49:24;5.65;;;1.40;;
14292;SDS011;62290;59.420;17.842;2022-10-17T14:54:57;4.43;;;1.50;;
14292;SDS011;62290;59.420;17.842;2022-10-17T14:57:33;8.68;;;1.77;;
14292;SDS011;62290;59.420;17.842;2022-10-17T15:00:12;6.28;;;2.35;;
14292;SDS011;62290;59.420;17.842;2022-10-17T15:02:43;8.48;;;1.73;;
14292;SDS011;62290;59.420;17.842;2022-10-17T15:05:12;13.98;;;1.77;;
14292;SDS011;62290;59.420;17.842;2022-10-17T15:07:41;13.27;;;1.98;;
14292;SDS011;62290;59.420;17.842;2022-10-17T15:10:16;13.95;;;2.30;;
14292;SDS011;62290;59.420;17.842;2022-10-17T15:12:58;12.63;;;2.40;;
14292;SDS011;62290;59.420;17.842;2022-10-17T15:15:46;11.23;;;2.22;;
14292;SDS011;62290;59.420;17.842;2022-10-17T15:18:19;7.95;;;2.35;;
14292;SDS011;62290;59.420;17.842;2022-10-17T15:20:47;7.80;;;1.83;;
14292;SDS011;62290;59.420;17.842;2022-10-17T15:23:30;8.02;;;1.77;;
14292;SDS011;62290;59.420;17.842;2022-10-17T15:25:59;9.20;;;2.05;;